sensor_id;sensor_type;location;lat;lon;timestamp;P1;P2;P0
55754;PMS5003;41674;52.290;-1.474;2023-08-20T00:00:32;2;2;
55754;PMS5003;41674;52.290;-1.474;2023-08-20T00:03:03;3;3;
55754;PMS5003;41674;52.290;-1.474;2023-08-20T00:05:31;2;2;
55754;PMS5003;41674;52.290;-1.474;2023-08-20T00:08:00;2;2;
55754;PMS5003;41674;52.290;-1.474;2023-08-20T00:10:29;2;2;
55754;PMS5003;41674;52.290;-1.474;2023-08-20T00:12:59;3;1;
55754;PMS5003;41674;52.290;-1.474;2023-08-20T00:15:29;3;2;
55754;PMS5003;41674;52.290;-1.474;2023-08-20T00:17:58;3;2;
55754;PMS5003;41674;52.290;-1.474;2023-08-20T00:20:28;2;2;
55754;PMS5003;41674;52.290;-1.474;2023-08-20T00:22:57;4;3;
55754;PMS5003;41674;52.290;-1.474;2023-08-20T00:25:27;3;2;
55754;PMS5003;41674;52.290;-1.474;2023-08-20T00:27:56;1;1;
55754;PMS5003;41674;52.290;-1.474;2023-08-20T00:30:26;1;1;
55754;PMS5003;41674;52.290;-1.474;2023-08-20T00:32:56;2;2;
55754;PMS5003;41674;52.290;-1.474;2023-08-20T00:35:25;2;2;
55754;PMS5003;41674;52.290;-1.474;2023-08-20T00:37:54;1;1;
55754;PMS5003;41674;52.290;-1.474;2023-08-20T00:40:24;2;2;
55754;PMS5003;41674;52.290;-1.474;2023-08-20T00:42:54;3;1;
55754;PMS5003;41674;52.290;-1.474;2023-08-20T00:45:23;3;1;
55754;PMS5003;41674;52.290;-1.474;2023-08-20T00:47:53;2;2;
55754;PMS5003;41674;52.290;-1.474;2023-08-20T00:50:22;2;2;
55754;PMS5003;41674;52.290;-1.474;2023-08-20T00:52:52;2;2;
55754;PMS5003;41674;52.290;-1.474;2023-08-20T00:55:21;3;2;
55754;PMS5003;41674;52.290;-1.474;2023-08-20T00:57:51;2;2;
55754;PMS5003;41674;52.290;-1.474;2023-08-20T01:00:21;2;2;
55754;PMS5003;41674;52.290;-1.474;2023-08-20T01:02:50;2;2;
55754;PMS5003;41674;52.290;-1.474;2023-08-20T01:05:20;6;4;
55754;PMS5003;41674;52.290;-1.474;2023-08-20T01:07:54;3;3;
55754;PMS5003;41674;52.290;-1.474;2023-08-20T01:10:21;2;2;
55754;PMS5003;41674;52.290;-1.474;2023-08-20T01:12:48;6;4;
55754;PMS5003;41674;52.290;-1.474;2023-08-20T01:15:18;3;3;
55754;PMS5003;41674;52.290;-1.474;2023-08-20T01:17:48;2;2;
55754;PMS5003;41674;52.290;-1.474;2023-08-20T01:20:17;3;3;
55754;PMS5003;41674;52.290;-1.474;2023-08-20T01:22:52;1;1;
55754;PMS5003;41674;52.290;-1.474;2023-08-20T01:25:17;4;3;
55754;PMS5003;41674;52.290;-1.474;2023-08-20T01:27:49;2;2;
55754;PMS5003;41674;52.290;-1.474;2023-08-20T01:30:15;6;3;
55754;PMS5003;41674;52.290;-1.474;2023-08-20T01:32:45;1;1;
55754;PMS5003;41674;52.290;-1.474;2023-08-20T01:35:15;4;3;
55754;PMS5003;41674;52.290;-1.474;2023-08-20T01:37:44;3;3;
55754;PMS5003;41674;52.290;-1.474;2023-08-20T01:40:13;3;2;
55754;PMS5003;41674;52.290;-1.474;2023-08-20T01:42:43;3;2;
55754;PMS5003;41674;52.290;-1.474;2023-08-20T01:45:12;3;3;
55754;PMS5003;41674;52.290;-1.474;2023-08-20T01:47:42;5;3;
55754;PMS5003;41674;52.290;-1.474;2023-08-20T01:50:11;1;1;
55754;PMS5003;41674;52.290;-1.474;2023-08-20T01:52:41;3;2;
55754;PMS5003;41674;52.290;-1.474;2023-08-20T01:55:11;1;1;
55754;PMS5003;41674;52.290;-1.474;2023-08-20T01:57:40;5;5;
55754;PMS5003;41674;52.290;-1.474;2023-08-20T02:00:10;7;4;
55754;PMS5003;41674;52.290;-1.474;2023-08-20T02:02:39;5;4;
55754;PMS5003;41674;52.290;-1.474;2023-08-20T02:05:09;3;1;
55754;PMS5003;41674;52.290;-1.474;2023-08-20T02:07:38;5;3;
55754;PMS5003;41674;52.290;-1.474;2023-08-20T02:10:08;6;4;
55754;PMS5003;41674;52.290;-1.474;2023-08-20T02:12:37;6;4;
55754;PMS5003;41674;52.290;-1.474;2023-08-20T02:15:07;3;3;
55754;PMS5003;41674;52.290;-1.474;2023-08-20T02:17:36;5;5;
55754;PMS5003;41674;52.290;-1.474;2023-08-20T02:20:06;2;2;
55754;PMS5003;41674;52.290;-1.474;2023-08-20T02:22:35;5;5;
55754;PMS5003;41674;52.290;-1.474;2023-08-20T02:25:05;4;4;
55754;PMS5003;41674;52.290;-1.474;2023-08-20T02:27:35;3;3;
55754;PMS5003;41674;52.290;-1.474;2023-08-20T02:30:05;6;5;
55754;PMS5003;41674;52.290;-1.474;2023-08-20T02:32:34;5;5;
55754;PMS5003;41674;52.290;-1.474;2023-08-20T02:35:03;6;2;
55754;PMS5003;41674;52.290;-1.474;2023-08-20T02:37:33;4;3;
55754;PMS5003;41674;52.290;-1.474;2023-08-20T02:40:03;7;5;
55754;PMS5003;41674;52.290;-1.474;2023-08-20T02:42:32;6;4;
55754;PMS5003;41674;52.290;-1.474;2023-08-20T02:45:02;7;5;
55754;PMS5003;41674;52.290;-1.474;2023-08-20T02:47:31;8;6;
55754;PMS5003;41674;52.290;-1.474;2023-08-20T02:50:01;7;6;
55754;PMS5003;41674;52.290;-1.474;2023-08-20T02:52:30;5;4;
55754;PMS5003;41674;52.290;-1.474;2023-08-20T02:55:00;6;5;
55754;PMS5003;41674;52.290;-1.474;2023-08-20T02:57:29;6;6;
55754;PMS5003;41674;52.290;-1.474;2023-08-20T02:59:59;6;6;
55754;PMS5003;41674;52.290;-1.474;2023-08-20T03:02:28;5;3;
55754;PMS5003;41674;52.290;-1.474;2023-08-20T03:04:58;5;5;
55754;PMS5003;41674;52.290;-1.474;2023-08-20T03:07:27;4;4;
55754;PMS5003;41674;52.290;-1.474;2023-08-20T03:09:57;5;4;
55754;PMS5003;41674;52.290;-1.474;2023-08-20T03:12:27;6;5;
55754;PMS5003;41674;52.290;-1.474;2023-08-20T03:14:56;8;5;
55754;PMS5003;41674;52.290;-1.474;2023-08-20T03:17:26;9;6;
55754;PMS5003;41674;52.290;-1.474;2023-08-20T03:19:56;6;6;
55754;PMS5003;41674;52.290;-1.474;2023-08-20T03:22:25;5;5;
55754;PMS5003;41674;52.290;-1.474;2023-08-20T03:24:55;7;6;
55754;PMS5003;41674;52.290;-1.474;2023-08-20T03:27:24;7;4;
55754;PMS5003;41674;52.290;-1.474;2023-08-20T03:29:54;5;5;
55754;PMS5003;41674;52.290;-1.474;2023-08-20T03:32:23;6;6;
55754;PMS5003;41674;52.290;-1.474;2023-08-20T03:34:53;7;6;
55754;PMS5003;41674;52.290;-1.474;2023-08-20T03:37:22;7;7;
55754;PMS5003;41674;52.290;-1.474;2023-08-20T03:39:51;6;6;
55754;PMS5003;41674;52.290;-1.474;2023-08-20T03:42:21;5;5;
55754;PMS5003;41674;52.290;-1.474;2023-08-20T03:44:51;6;4;
55754;PMS5003;41674;52.290;-1.474;2023-08-20T03:47:20;7;5;
55754;PMS5003;41674;52.290;-1.474;2023-08-20T03:49:50;4;4;
55754;PMS5003;41674;52.290;-1.474;2023-08-20T03:52:19;5;4;
55754;PMS5003;41674;52.290;-1.474;2023-08-20T03:54:49;4;4;
55754;PMS5003;41674;52.290;-1.474;2023-08-20T03:57:19;5;5;
55754;PMS5003;41674;52.290;-1.474;2023-08-20T03:59:48;5;5;
55754;PMS5003;41674;52.290;-1.474;2023-08-20T04:02:18;5;4;
55754;PMS5003;41674;52.290;-1.474;2023-08-20T04:04:47;10;5;
55754;PMS5003;41674;52.290;-1.474;2023-08-20T04:07:17;6;6;
55754;PMS5003;41674;52.290;-1.474;2023-08-20T04:09:46;4;4;
55754;PMS5003;41674;52.290;-1.474;2023-08-20T04:12:16;8;5;
55754;PMS5003;41674;52.290;-1.474;2023-08-20T04:14:45;4;4;
55754;PMS5003;41674;52.290;-1.474;2023-08-20T04:17:15;4;4;
55754;PMS5003;41674;52.290;-1.474;2023-08-20T04:19:44;4;4;
55754;PMS5003;41674;52.290;-1.474;2023-08-20T04:22:14;5;5;
55754;PMS5003;41674;52.290;-1.474;2023-08-20T04:24:44;6;5;
55754;PMS5003;41674;52.290;-1.474;2023-08-20T04:27:13;7;6;
55754;PMS5003;41674;52.290;-1.474;2023-08-20T04:29:43;5;5;
55754;PMS5003;41674;52.290;-1.474;2023-08-20T04:32:12;4;4;
55754;PMS5003;41674;52.290;-1.474;2023-08-20T04:34:43;5;4;
55754;PMS5003;41674;52.290;-1.474;2023-08-20T04:37:11;2;2;
55754;PMS5003;41674;52.290;-1.474;2023-08-20T04:39:41;5;4;
55754;PMS5003;41674;52.290;-1.474;2023-08-20T04:42:11;6;5;
55754;PMS5003;41674;52.290;-1.474;2023-08-20T04:44:40;3;3;
55754;PMS5003;41674;52.290;-1.474;2023-08-20T04:47:11;5;4;
55754;PMS5003;41674;52.290;-1.474;2023-08-20T04:49:39;6;5;
55754;PMS5003;41674;52.290;-1.474;2023-08-20T04:52:09;4;4;
55754;PMS5003;41674;52.290;-1.474;2023-08-20T04:54:38;6;4;
55754;PMS5003;41674;52.290;-1.474;2023-08-20T04:57:08;6;5;
55754;PMS5003;41674;52.290;-1.474;2023-08-20T04:59:38;5;4;
55754;PMS5003;41674;52.290;-1.474;2023-08-20T05:02:07;5;5;
55754;PMS5003;41674;52.290;-1.474;2023-08-20T05:04:37;4;4;
55754;PMS5003;41674;52.290;-1.474;2023-08-20T05:07:06;6;6;
55754;PMS5003;41674;52.290;-1.474;2023-08-20T05:09:35;7;5;
55754;PMS5003;41674;52.290;-1.474;2023-08-20T05:12:05;5;5;
55754;PMS5003;41674;52.290;-1.474;2023-08-20T05:14:35;8;4;
55754;PMS5003;41674;52.290;-1.474;2023-08-20T05:17:04;6;4;
55754;PMS5003;41674;52.290;-1.474;2023-08-20T05:19:34;6;5;
55754;PMS5003;41674;52.290;-1.474;2023-08-20T05:22:03;9;6;
55754;PMS5003;41674;52.290;-1.474;2023-08-20T05:24:33;4;4;
55754;PMS5003;41674;52.290;-1.474;2023-08-20T05:27:05;4;4;
55754;PMS5003;41674;52.290;-1.474;2023-08-20T05:29:32;4;3;
55754;PMS5003;41674;52.290;-1.474;2023-08-20T05:32:01;4;4;
55754;PMS5003;41674;52.290;-1.474;2023-08-20T05:34:32;5;5;
55754;PMS5003;41674;52.290;-1.474;2023-08-20T05:37:01;5;5;
55754;PMS5003;41674;52.290;-1.474;2023-08-20T05:39:30;8;5;
55754;PMS5003;41674;52.290;-1.474;2023-08-20T05:42:00;8;5;
55754;PMS5003;41674;52.290;-1.474;2023-08-20T05:44:29;4;3;
55754;PMS5003;41674;52.290;-1.474;2023-08-20T05:46:59;5;4;
55754;PMS5003;41674;52.290;-1.474;2023-08-20T05:49:28;8;4;
55754;PMS5003;41674;52.290;-1.474;2023-08-20T05:51:58;8;5;
55754;PMS5003;41674;52.290;-1.474;2023-08-20T05:54:27;7;5;
55754;PMS5003;41674;52.290;-1.474;2023-08-20T05:56:57;4;4;
55754;PMS5003;41674;52.290;-1.474;2023-08-20T05:59:27;7;4;
55754;PMS5003;41674;52.290;-1.474;2023-08-20T06:01:56;5;5;
55754;PMS5003;41674;52.290;-1.474;2023-08-20T06:04:25;6;4;
55754;PMS5003;41674;52.290;-1.474;2023-08-20T06:06:55;4;3;
55754;PMS5003;41674;52.290;-1.474;2023-08-20T06:09:24;5;4;
55754;PMS5003;41674;52.290;-1.474;2023-08-20T06:11:54;6;6;
55754;PMS5003;41674;52.290;-1.474;2023-08-20T06:14:23;7;5;
55754;PMS5003;41674;52.290;-1.474;2023-08-20T06:16:53;6;6;
55754;PMS5003;41674;52.290;-1.474;2023-08-20T06:19:23;4;4;
55754;PMS5003;41674;52.290;-1.474;2023-08-20T06:21:52;6;5;
55754;PMS5003;41674;52.290;-1.474;2023-08-20T06:24:21;6;4;
55754;PMS5003;41674;52.290;-1.474;2023-08-20T06:26:51;3;2;
55754;PMS5003;41674;52.290;-1.474;2023-08-20T06:29:21;3;3;
55754;PMS5003;41674;52.290;-1.474;2023-08-20T06:31:50;5;5;
55754;PMS5003;41674;52.290;-1.474;2023-08-20T06:34:20;5;5;
55754;PMS5003;41674;52.290;-1.474;2023-08-20T06:36:49;5;5;
55754;PMS5003;41674;52.290;-1.474;2023-08-20T06:39:19;6;6;
55754;PMS5003;41674;52.290;-1.474;2023-08-20T06:41:48;6;6;
55754;PMS5003;41674;52.290;-1.474;2023-08-20T06:44:18;5;4;
55754;PMS5003;41674;52.290;-1.474;2023-08-20T06:46:48;5;5;
55754;PMS5003;41674;52.290;-1.474;2023-08-20T06:49:17;4;4;
55754;PMS5003;41674;52.290;-1.474;2023-08-20T06:51:47;8;7;
55754;PMS5003;41674;52.290;-1.474;2023-08-20T06:54:16;6;3;
55754;PMS5003;41674;52.290;-1.474;2023-08-20T06:56:46;4;4;
55754;PMS5003;41674;52.290;-1.474;2023-08-20T06:59:15;3;2;
55754;PMS5003;41674;52.290;-1.474;2023-08-20T07:01:45;3;3;
55754;PMS5003;41674;52.290;-1.474;2023-08-20T07:04:14;4;3;
55754;PMS5003;41674;52.290;-1.474;2023-08-20T07:06:44;4;4;
55754;PMS5003;41674;52.290;-1.474;2023-08-20T07:09:13;6;5;
55754;PMS5003;41674;52.290;-1.474;2023-08-20T07:11:43;3;3;
55754;PMS5003;41674;52.290;-1.474;2023-08-20T07:14:13;5;5;
55754;PMS5003;41674;52.290;-1.474;2023-08-20T07:16:42;3;3;
55754;PMS5003;41674;52.290;-1.474;2023-08-20T07:19:12;3;3;
55754;PMS5003;41674;52.290;-1.474;2023-08-20T07:21:41;5;4;
55754;PMS5003;41674;52.290;-1.474;2023-08-20T07:24:11;4;4;
55754;PMS5003;41674;52.290;-1.474;2023-08-20T07:26:40;4;4;
55754;PMS5003;41674;52.290;-1.474;2023-08-20T07:29:10;3;3;
55754;PMS5003;41674;52.290;-1.474;2023-08-20T07:31:39;4;4;
55754;PMS5003;41674;52.290;-1.474;2023-08-20T07:34:09;3;3;
55754;PMS5003;41674;52.290;-1.474;2023-08-20T07:36:38;6;4;
55754;PMS5003;41674;52.290;-1.474;2023-08-20T07:39:08;6;5;
55754;PMS5003;41674;52.290;-1.474;2023-08-20T07:41:38;5;5;
55754;PMS5003;41674;52.290;-1.474;2023-08-20T07:44:07;5;5;
55754;PMS5003;41674;52.290;-1.474;2023-08-20T07:46:37;5;5;
55754;PMS5003;41674;52.290;-1.474;2023-08-20T07:49:06;3;3;
55754;PMS5003;41674;52.290;-1.474;2023-08-20T07:51:36;5;3;
55754;PMS5003;41674;52.290;-1.474;2023-08-20T07:54:05;4;4;
55754;PMS5003;41674;52.290;-1.474;2023-08-20T07:56:35;6;4;
55754;PMS5003;41674;52.290;-1.474;2023-08-20T07:59:04;4;4;
55754;PMS5003;41674;52.290;-1.474;2023-08-20T08:01:34;4;4;
55754;PMS5003;41674;52.290;-1.474;2023-08-20T08:04:03;5;4;
55754;PMS5003;41674;52.290;-1.474;2023-08-20T08:06:33;4;4;
55754;PMS5003;41674;52.290;-1.474;2023-08-20T08:11:32;4;4;
55754;PMS5003;41674;52.290;-1.474;2023-08-20T08:14:01;3;2;
55754;PMS5003;41674;52.290;-1.474;2023-08-20T08:16:31;4;4;
55754;PMS5003;41674;52.290;-1.474;2023-08-20T08:19:01;2;2;
55754;PMS5003;41674;52.290;-1.474;2023-08-20T08:21:30;5;4;
55754;PMS5003;41674;52.290;-1.474;2023-08-20T08:23:59;3;3;
55754;PMS5003;41674;52.290;-1.474;2023-08-20T08:26:29;4;4;
55754;PMS5003;41674;52.290;-1.474;2023-08-20T08:28:59;2;2;
55754;PMS5003;41674;52.290;-1.474;2023-08-20T08:31:28;3;3;
55754;PMS5003;41674;52.290;-1.474;2023-08-20T08:33:58;2;2;
55754;PMS5003;41674;52.290;-1.474;2023-08-20T08:36:27;6;5;
55754;PMS5003;41674;52.290;-1.474;2023-08-20T08:38:57;5;4;
55754;PMS5003;41674;52.290;-1.474;2023-08-20T08:41:26;4;3;
55754;PMS5003;41674;52.290;-1.474;2023-08-20T08:43:56;4;3;
55754;PMS5003;41674;52.290;-1.474;2023-08-20T08:46:25;3;3;
55754;PMS5003;41674;52.290;-1.474;2023-08-20T08:48:55;6;4;
55754;PMS5003;41674;52.290;-1.474;2023-08-20T08:51:24;3;3;
55754;PMS5003;41674;52.290;-1.474;2023-08-20T08:53:54;5;4;
55754;PMS5003;41674;52.290;-1.474;2023-08-20T08:56:23;5;4;
55754;PMS5003;41674;52.290;-1.474;2023-08-20T08:58:53;4;3;
55754;PMS5003;41674;52.290;-1.474;2023-08-20T09:01:23;2;1;
55754;PMS5003;41674;52.290;-1.474;2023-08-20T09:03:52;5;3;
55754;PMS5003;41674;52.290;-1.474;2023-08-20T09:06:21;2;2;
55754;PMS5003;41674;52.290;-1.474;2023-08-20T09:08:55;3;3;
55754;PMS5003;41674;52.290;-1.474;2023-08-20T09:11:21;3;3;
55754;PMS5003;41674;52.290;-1.474;2023-08-20T09:13:50;4;2;
55754;PMS5003;41674;52.290;-1.474;2023-08-20T09:16:20;8;3;
55754;PMS5003;41674;52.290;-1.474;2023-08-20T09:18:49;3;3;
55754;PMS5003;41674;52.290;-1.474;2023-08-20T09:21:19;4;2;
55754;PMS5003;41674;52.290;-1.474;2023-08-20T09:23:48;4;3;
55754;PMS5003;41674;52.290;-1.474;2023-08-20T09:26:18;3;3;
55754;PMS5003;41674;52.290;-1.474;2023-08-20T09:28:48;2;2;
55754;PMS5003;41674;52.290;-1.474;2023-08-20T09:31:17;1;1;
55754;PMS5003;41674;52.290;-1.474;2023-08-20T09:33:49;3;2;
55754;PMS5003;41674;52.290;-1.474;2023-08-20T09:36:16;4;1;
55754;PMS5003;41674;52.290;-1.474;2023-08-20T09:38:45;4;3;
55754;PMS5003;41674;52.290;-1.474;2023-08-20T09:41:15;2;2;
55754;PMS5003;41674;52.290;-1.474;2023-08-20T09:43:44;3;3;
55754;PMS5003;41674;52.290;-1.474;2023-08-20T09:46:14;1;1;
55754;PMS5003;41674;52.290;-1.474;2023-08-20T09:48:43;1;1;
55754;PMS5003;41674;52.290;-1.474;2023-08-20T09:51:13;3;3;
55754;PMS5003;41674;52.290;-1.474;2023-08-20T09:53:43;2;2;
55754;PMS5003;41674;52.290;-1.474;2023-08-20T09:56:14;4;4;
55754;PMS5003;41674;52.290;-1.474;2023-08-20T09:58:41;3;2;
55754;PMS5003;41674;52.290;-1.474;2023-08-20T10:01:11;3;3;
55754;PMS5003;41674;52.290;-1.474;2023-08-20T10:03:41;0;0;
55754;PMS5003;41674;52.290;-1.474;2023-08-20T10:06:11;3;1;
55754;PMS5003;41674;52.290;-1.474;2023-08-20T10:08:40;2;2;
55754;PMS5003;41674;52.290;-1.474;2023-08-20T10:11:09;3;2;
55754;PMS5003;41674;52.290;-1.474;2023-08-20T10:13:39;3;3;
55754;PMS5003;41674;52.290;-1.474;2023-08-20T10:16:08;1;1;
55754;PMS5003;41674;52.290;-1.474;2023-08-20T10:18:38;4;4;
55754;PMS5003;41674;52.290;-1.474;2023-08-20T10:21:08;2;2;
55754;PMS5003;41674;52.290;-1.474;2023-08-20T10:23:39;2;1;
55754;PMS5003;41674;52.290;-1.474;2023-08-20T10:26:07;3;3;
55754;PMS5003;41674;52.290;-1.474;2023-08-20T10:28:36;1;1;
55754;PMS5003;41674;52.290;-1.474;2023-08-20T10:31:06;2;2;
55754;PMS5003;41674;52.290;-1.474;2023-08-20T10:33:35;5;3;
55754;PMS5003;41674;52.290;-1.474;2023-08-20T10:36:08;3;3;
55754;PMS5003;41674;52.290;-1.474;2023-08-20T10:38:35;2;2;
55754;PMS5003;41674;52.290;-1.474;2023-08-20T10:41:05;4;4;
55754;PMS5003;41674;52.290;-1.474;2023-08-20T10:43:33;3;2;
55754;PMS5003;41674;52.290;-1.474;2023-08-20T10:46:03;1;1;
55754;PMS5003;41674;52.290;-1.474;2023-08-20T10:48:32;2;2;
55754;PMS5003;41674;52.290;-1.474;2023-08-20T10:51:07;4;2;
55754;PMS5003;41674;52.290;-1.474;2023-08-20T10:53:31;2;2;
55754;PMS5003;41674;52.290;-1.474;2023-08-20T10:58:30;1;1;
55754;PMS5003;41674;52.290;-1.474;2023-08-20T11:03:29;1;1;
55754;PMS5003;41674;52.290;-1.474;2023-08-20T11:05:59;5;4;
55754;PMS5003;41674;52.290;-1.474;2023-08-20T11:08:28;2;2;
55754;PMS5003;41674;52.290;-1.474;2023-08-20T11:10:58;4;4;
55754;PMS5003;41674;52.290;-1.474;2023-08-20T11:13:27;1;1;
55754;PMS5003;41674;52.290;-1.474;2023-08-20T11:15:57;2;2;
55754;PMS5003;41674;52.290;-1.474;2023-08-20T11:18:26;1;1;
55754;PMS5003;41674;52.290;-1.474;2023-08-20T11:20:56;2;2;
55754;PMS5003;41674;52.290;-1.474;2023-08-20T11:23:25;1;1;
55754;PMS5003;41674;52.290;-1.474;2023-08-20T11:25:55;0;0;
55754;PMS5003;41674;52.290;-1.474;2023-08-20T11:28:25;2;1;
55754;PMS5003;41674;52.290;-1.474;2023-08-20T11:30:54;4;2;
55754;PMS5003;41674;52.290;-1.474;2023-08-20T11:33:23;0;0;
55754;PMS5003;41674;52.290;-1.474;2023-08-20T11:35:53;3;2;
55754;PMS5003;41674;52.290;-1.474;2023-08-20T11:38:23;3;2;
55754;PMS5003;41674;52.290;-1.474;2023-08-20T11:40:52;5;2;
55754;PMS5003;41674;52.290;-1.474;2023-08-20T11:43:21;2;2;
55754;PMS5003;41674;52.290;-1.474;2023-08-20T11:45:51;4;3;
55754;PMS5003;41674;52.290;-1.474;2023-08-20T11:48:20;1;0;
55754;PMS5003;41674;52.290;-1.474;2023-08-20T11:50:50;2;2;
55754;PMS5003;41674;52.290;-1.474;2023-08-20T11:53:20;2;2;
55754;PMS5003;41674;52.290;-1.474;2023-08-20T11:55:49;1;1;
55754;PMS5003;41674;52.290;-1.474;2023-08-20T11:58:18;3;1;
55754;PMS5003;41674;52.290;-1.474;2023-08-20T12:00:48;1;1;
55754;PMS5003;41674;52.290;-1.474;2023-08-20T12:03:18;2;2;
55754;PMS5003;41674;52.290;-1.474;2023-08-20T12:05:47;1;1;
55754;PMS5003;41674;52.290;-1.474;2023-08-20T12:08:16;2;0;
55754;PMS5003;41674;52.290;-1.474;2023-08-20T12:10:46;1;1;
55754;PMS5003;41674;52.290;-1.474;2023-08-20T12:13:15;2;2;
55754;PMS5003;41674;52.290;-1.474;2023-08-20T12:15:45;1;1;
55754;PMS5003;41674;52.290;-1.474;2023-08-20T12:18:14;2;2;
55754;PMS5003;41674;52.290;-1.474;2023-08-20T12:20:44;1;1;
55754;PMS5003;41674;52.290;-1.474;2023-08-20T12:23:13;1;1;
55754;PMS5003;41674;52.290;-1.474;2023-08-20T12:25:43;1;0;
55754;PMS5003;41674;52.290;-1.474;2023-08-20T12:28:12;0;0;
55754;PMS5003;41674;52.290;-1.474;2023-08-20T12:30:42;1;1;
55754;PMS5003;41674;52.290;-1.474;2023-08-20T12:33:11;1;1;
55754;PMS5003;41674;52.290;-1.474;2023-08-20T12:35:41;1;1;
55754;PMS5003;41674;52.290;-1.474;2023-08-20T12:38:10;1;0;
55754;PMS5003;41674;52.290;-1.474;2023-08-20T12:40:40;0;0;
55754;PMS5003;41674;52.290;-1.474;2023-08-20T12:43:10;0;0;
55754;PMS5003;41674;52.290;-1.474;2023-08-20T12:45:39;1;1;
55754;PMS5003;41674;52.290;-1.474;2023-08-20T12:48:08;1;1;
55754;PMS5003;41674;52.290;-1.474;2023-08-20T12:50:38;1;1;
55754;PMS5003;41674;52.290;-1.474;2023-08-20T12:53:07;2;1;
55754;PMS5003;41674;52.290;-1.474;2023-08-20T12:55:37;2;0;
55754;PMS5003;41674;52.290;-1.474;2023-08-20T12:58:06;0;0;
55754;PMS5003;41674;52.290;-1.474;2023-08-20T13:00:36;0;0;
55754;PMS5003;41674;52.290;-1.474;2023-08-20T13:03:06;3;3;
55754;PMS5003;41674;52.290;-1.474;2023-08-20T13:05:35;0;0;
55754;PMS5003;41674;52.290;-1.474;2023-08-20T13:08:05;1;1;
55754;PMS5003;41674;52.290;-1.474;2023-08-20T13:10:34;1;1;
55754;PMS5003;41674;52.290;-1.474;2023-08-20T13:13:04;3;1;
55754;PMS5003;41674;52.290;-1.474;2023-08-20T13:15:33;1;1;
55754;PMS5003;41674;52.290;-1.474;2023-08-20T13:18:03;2;1;
55754;PMS5003;41674;52.290;-1.474;2023-08-20T13:20:32;1;1;
55754;PMS5003;41674;52.290;-1.474;2023-08-20T13:23:02;1;1;
55754;PMS5003;41674;52.290;-1.474;2023-08-20T13:25:36;1;1;
55754;PMS5003;41674;52.290;-1.474;2023-08-20T13:28:06;1;1;
55754;PMS5003;41674;52.290;-1.474;2023-08-20T13:30:35;2;0;
55754;PMS5003;41674;52.290;-1.474;2023-08-20T13:33:05;0;0;
55754;PMS5003;41674;52.290;-1.474;2023-08-20T13:35:34;1;0;
55754;PMS5003;41674;52.290;-1.474;2023-08-20T13:38:04;0;0;
55754;PMS5003;41674;52.290;-1.474;2023-08-20T13:40:33;0;0;
55754;PMS5003;41674;52.290;-1.474;2023-08-20T13:43:03;3;3;
55754;PMS5003;41674;52.290;-1.474;2023-08-20T13:45:32;0;0;
55754;PMS5003;41674;52.290;-1.474;2023-08-20T13:48:02;1;1;
55754;PMS5003;41674;52.290;-1.474;2023-08-20T13:50:31;1;1;
55754;PMS5003;41674;52.290;-1.474;2023-08-20T13:52:56;3;1;
55754;PMS5003;41674;52.290;-1.474;2023-08-20T13:55:30;0;0;
55754;PMS5003;41674;52.290;-1.474;2023-08-20T13:58:00;0;0;
55754;PMS5003;41674;52.290;-1.474;2023-08-20T14:00:29;1;1;
55754;PMS5003;41674;52.290;-1.474;2023-08-20T14:02:59;1;1;
55754;PMS5003;41674;52.290;-1.474;2023-08-20T14:05:28;2;2;
55754;PMS5003;41674;52.290;-1.474;2023-08-20T14:07:58;0;0;
55754;PMS5003;41674;52.290;-1.474;2023-08-20T14:10:27;1;1;
55754;PMS5003;41674;52.290;-1.474;2023-08-20T14:12:57;1;1;
55754;PMS5003;41674;52.290;-1.474;2023-08-20T14:15:26;2;2;
55754;PMS5003;41674;52.290;-1.474;2023-08-20T14:17:56;1;1;
55754;PMS5003;41674;52.290;-1.474;2023-08-20T14:20:25;3;2;
55754;PMS5003;41674;52.290;-1.474;2023-08-20T14:22:50;0;0;
55754;PMS5003;41674;52.290;-1.474;2023-08-20T14:25:19;2;1;
55754;PMS5003;41674;52.290;-1.474;2023-08-20T14:27:49;0;0;
55754;PMS5003;41674;52.290;-1.474;2023-08-20T14:30:18;1;1;
55754;PMS5003;41674;52.290;-1.474;2023-08-20T14:32:48;0;0;
55754;PMS5003;41674;52.290;-1.474;2023-08-20T14:35:17;0;0;
55754;PMS5003;41674;52.290;-1.474;2023-08-20T14:37:47;2;0;
55754;PMS5003;41674;52.290;-1.474;2023-08-20T14:40:16;1;1;
55754;PMS5003;41674;52.290;-1.474;2023-08-20T14:42:46;1;1;
55754;PMS5003;41674;52.290;-1.474;2023-08-20T14:45:16;0;0;
55754;PMS5003;41674;52.290;-1.474;2023-08-20T14:47:45;1;1;
55754;PMS5003;41674;52.290;-1.474;2023-08-20T14:50:15;1;1;
55754;PMS5003;41674;52.290;-1.474;2023-08-20T14:52:44;1;1;
55754;PMS5003;41674;52.290;-1.474;2023-08-20T14:55:14;1;1;
55754;PMS5003;41674;52.290;-1.474;2023-08-20T14:57:43;2;1;
55754;PMS5003;41674;52.290;-1.474;2023-08-20T15:00:13;2;2;
55754;PMS5003;41674;52.290;-1.474;2023-08-20T15:02:42;0;0;
55754;PMS5003;41674;52.290;-1.474;2023-08-20T15:05:12;1;1;
55754;PMS5003;41674;52.290;-1.474;2023-08-20T15:07:41;1;1;
55754;PMS5003;41674;52.290;-1.474;2023-08-20T15:10:11;2;2;
55754;PMS5003;41674;52.290;-1.474;2023-08-20T15:12:40;1;1;
55754;PMS5003;41674;52.290;-1.474;2023-08-20T15:15:10;1;1;
55754;PMS5003;41674;52.290;-1.474;2023-08-20T15:17:39;1;1;
55754;PMS5003;41674;52.290;-1.474;2023-08-20T15:20:09;2;2;
55754;PMS5003;41674;52.290;-1.474;2023-08-20T15:22:39;2;1;
55754;PMS5003;41674;52.290;-1.474;2023-08-20T15:25:08;0;0;
55754;PMS5003;41674;52.290;-1.474;2023-08-20T15:27:38;1;1;
55754;PMS5003;41674;52.290;-1.474;2023-08-20T15:30:07;1;1;
55754;PMS5003;41674;52.290;-1.474;2023-08-20T15:32:36;3;3;
55754;PMS5003;41674;52.290;-1.474;2023-08-20T15:35:06;0;0;
55754;PMS5003;41674;52.290;-1.474;2023-08-20T15:37:36;0;0;
55754;PMS5003;41674;52.290;-1.474;2023-08-20T15:40:06;0;0;
55754;PMS5003;41674;52.290;-1.474;2023-08-20T15:42:34;0;0;
55754;PMS5003;41674;52.290;-1.474;2023-08-20T15:45:04;0;0;
55754;PMS5003;41674;52.290;-1.474;2023-08-20T15:47:34;1;0;
55754;PMS5003;41674;52.290;-1.474;2023-08-20T15:50:03;0;0;
55754;PMS5003;41674;52.290;-1.474;2023-08-20T15:52:33;0;0;
55754;PMS5003;41674;52.290;-1.474;2023-08-20T15:55:02;0;0;
55754;PMS5003;41674;52.290;-1.474;2023-08-20T15:57:31;0;0;
55754;PMS5003;41674;52.290;-1.474;2023-08-20T16:00:01;0;0;
55754;PMS5003;41674;52.290;-1.474;2023-08-20T16:02:31;0;0;
55754;PMS5003;41674;52.290;-1.474;2023-08-20T16:05:00;0;0;
55754;PMS5003;41674;52.290;-1.474;2023-08-20T16:07:30;1;1;
55754;PMS5003;41674;52.290;-1.474;2023-08-20T16:09:59;1;1;
55754;PMS5003;41674;52.290;-1.474;2023-08-20T16:12:28;0;0;
55754;PMS5003;41674;52.290;-1.474;2023-08-20T16:14:58;0;0;
55754;PMS5003;41674;52.290;-1.474;2023-08-20T16:17:27;0;0;
55754;PMS5003;41674;52.290;-1.474;2023-08-20T16:19:57;0;0;
55754;PMS5003;41674;52.290;-1.474;2023-08-20T16:22:27;0;0;
55754;PMS5003;41674;52.290;-1.474;2023-08-20T16:24:56;0;0;
55754;PMS5003;41674;52.290;-1.474;2023-08-20T16:27:25;0;0;
55754;PMS5003;41674;52.290;-1.474;2023-08-20T16:29:55;0;0;
55754;PMS5003;41674;52.290;-1.474;2023-08-20T16:32:24;1;1;
55754;PMS5003;41674;52.290;-1.474;2023-08-20T16:34:54;1;0;
55754;PMS5003;41674;52.290;-1.474;2023-08-20T16:37:24;4;3;
55754;PMS5003;41674;52.290;-1.474;2023-08-20T16:39:53;0;0;
55754;PMS5003;41674;52.290;-1.474;2023-08-20T16:42:22;0;0;
55754;PMS5003;41674;52.290;-1.474;2023-08-20T16:44:52;0;0;
55754;PMS5003;41674;52.290;-1.474;2023-08-20T16:47:22;0;0;
55754;PMS5003;41674;52.290;-1.474;2023-08-20T16:49:51;0;0;
55754;PMS5003;41674;52.290;-1.474;2023-08-20T16:52:21;0;0;
55754;PMS5003;41674;52.290;-1.474;2023-08-20T16:54:50;0;0;